sensor_id;sensor_type;location;lat;lon;timestamp;P1;durP1;ratioP1;P2;durP2;ratioP2
12163;SDS011;6145;50.192;10.064;2023-08-01T06:29:23;2.70;;;1.90;;
12163;SDS011;6145;50.192;10.064;2023-08-01T06:31:50;3.03;;;1.87;;
12163;SDS011;6145;50.192;10.064;2023-08-01T06:34:17;1.83;;;1.73;;
12163;SDS011;6145;50.192;10.064;2023-08-01T06:36:44;4.87;;;1.87;;
12163;SDS011;6145;50.192;10.064;2023-08-01T06:39:11;2.00;;;1.80;;
12163;SDS011;6145;50.192;10.064;2023-08-01T06:41:38;2.67;;;2.23;;
12163;SDS011;6145;50.192;10.064;2023-08-01T06:44:05;2.13;;;1.93;;
12163;SDS011;6145;50.192;10.064;2023-08-01T06:46:45;2.47;;;2.00;;
12163;SDS011;6145;50.192;10.064;2023-08-01T06:49:13;1.93;;;1.77;;
12163;SDS011;6145;50.192;10.064;2023-08-01T06:51:41;2.23;;;2.00;;
12163;SDS011;6145;50.192;10.064;2023-08-01T06:54:10;4.77;;;2.17;;
12163;SDS011;6145;50.192;10.064;2023-08-01T06:56:37;2.17;;;1.80;;
12163;SDS011;6145;50.192;10.064;2023-08-01T06:59:12;3.50;;;2.30;;
12163;SDS011;6145;50.192;10.064;2023-08-01T07:01:40;2.80;;;2.20;;
12163;SDS011;6145;50.192;10.064;2023-08-01T07:04:11;1.73;;;1.63;;
12163;SDS011;6145;50.192;10.064;2023-08-01T07:06:39;4.00;;;2.10;;
12163;SDS011;6145;50.192;10.064;2023-08-01T07:09:07;2.73;;;2.33;;
12163;SDS011;6145;50.192;10.064;2023-08-01T07:11:35;3.73;;;2.30;;
12163;SDS011;6145;50.192;10.064;2023-08-01T07:14:04;3.37;;;2.67;;
12163;SDS011;6145;50.192;10.064;2023-08-01T07:16:34;2.47;;;2.27;;
12163;SDS011;6145;50.192;10.064;2023-08-01T07:19:00;3.57;;;3.20;;
12163;SDS011;6145;50.192;10.064;2023-08-01T07:21:29;3.53;;;2.67;;
12163;SDS011;6145;50.192;10.064;2023-08-01T07:24:00;2.90;;;2.57;;
12163;SDS011;6145;50.192;10.064;2023-08-01T07:26:27;3.03;;;2.50;;
12163;SDS011;6145;50.192;10.064;2023-08-01T07:28:55;2.60;;;2.30;;
12163;SDS011;6145;50.192;10.064;2023-08-01T07:31:27;3.87;;;2.60;;
12163;SDS011;6145;50.192;10.064;2023-08-01T07:34:00;3.67;;;2.77;;
12163;SDS011;6145;50.192;10.064;2023-08-01T07:36:31;3.10;;;2.77;;
12163;SDS011;6145;50.192;10.064;2023-08-01T07:39:09;2.53;;;2.33;;
12163;SDS011;6145;50.192;10.064;2023-08-01T07:41:36;2.73;;;2.53;;
12163;SDS011;6145;50.192;10.064;2023-08-01T07:44:03;2.90;;;2.60;;
12163;SDS011;6145;50.192;10.064;2023-08-01T07:46:31;2.23;;;2.03;;
12163;SDS011;6145;50.192;10.064;2023-08-01T07:49:00;4.37;;;2.77;;
12163;SDS011;6145;50.192;10.064;2023-08-01T07:51:27;3.87;;;2.70;;
12163;SDS011;6145;50.192;10.064;2023-08-01T07:53:56;2.80;;;2.53;;
12163;SDS011;6145;50.192;10.064;2023-08-01T07:56:42;3.47;;;2.30;;
12163;SDS011;6145;50.192;10.064;2023-08-01T07:59:10;3.60;;;2.47;;
12163;SDS011;6145;50.192;10.064;2023-08-01T08:01:37;2.87;;;2.27;;
12163;SDS011;6145;50.192;10.064;2023-08-01T08:04:05;5.43;;;2.50;;
12163;SDS011;6145;50.192;10.064;2023-08-01T08:06:32;3.10;;;2.00;;
12163;SDS011;6145;50.192;10.064;2023-08-01T08:09:02;2.43;;;2.20;;
12163;SDS011;6145;50.192;10.064;2023-08-01T08:11:29;2.80;;;2.40;;
12163;SDS011;6145;50.192;10.064;2023-08-01T08:13:56;2.40;;;2.20;;
12163;SDS011;6145;50.192;10.064;2023-08-01T08:16:23;4.13;;;2.37;;
12163;SDS011;6145;50.192;10.064;2023-08-01T08:18:50;2.77;;;2.10;;
12163;SDS011;6145;50.192;10.064;2023-08-01T08:21:17;3.20;;;2.40;;
12163;SDS011;6145;50.192;10.064;2023-08-01T08:23:44;2.63;;;1.87;;
12163;SDS011;6145;50.192;10.064;2023-08-01T08:26:14;2.97;;;1.43;;
12163;SDS011;6145;50.192;10.064;2023-08-01T08:28:41;1.77;;;1.30;;
12163;SDS011;6145;50.192;10.064;2023-08-01T08:31:10;0.97;;;0.90;;
12163;SDS011;6145;50.192;10.064;2023-08-01T08:33:37;1.30;;;1.20;;
12163;SDS011;6145;50.192;10.064;2023-08-01T08:36:06;1.10;;;1.10;;
12163;SDS011;6145;50.192;10.064;2023-08-01T08:38:39;1.30;;;1.20;;
12163;SDS011;6145;50.192;10.064;2023-08-01T08:41:08;1.50;;;1.40;;
12163;SDS011;6145;50.192;10.064;2023-08-01T08:46:29;1.40;;;1.30;;
12163;SDS011;6145;50.192;10.064;2023-08-01T08:48:58;2.03;;;1.83;;
12163;SDS011;6145;50.192;10.064;2023-08-01T08:51:29;1.67;;;1.40;;
12163;SDS011;6145;50.192;10.064;2023-08-01T08:54:06;1.70;;;1.60;;
12163;SDS011;6145;50.192;10.064;2023-08-01T08:56:36;1.53;;;1.43;;
12163;SDS011;6145;50.192;10.064;2023-08-01T09:02:23;1.57;;;1.47;;
12163;SDS011;6145;50.192;10.064;2023-08-01T09:05:00;1.70;;;1.60;;
12163;SDS011;6145;50.192;10.064;2023-08-01T09:07:30;2.10;;;1.40;;
12163;SDS011;6145;50.192;10.064;2023-08-01T09:10:03;1.80;;;1.70;;
12163;SDS011;6145;50.192;10.064;2023-08-01T09:12:33;1.60;;;1.50;;
12163;SDS011;6145;50.192;10.064;2023-08-01T09:15:07;1.73;;;1.40;;
12163;SDS011;6145;50.192;10.064;2023-08-01T09:20:26;3.17;;;1.77;;
12163;SDS011;6145;50.192;10.064;2023-08-01T09:22:53;1.60;;;1.50;;
12163;SDS011;6145;50.192;10.064;2023-08-01T09:25:20;1.43;;;1.33;;
12163;SDS011;6145;50.192;10.064;2023-08-01T09:28:00;1.50;;;1.40;;
12163;SDS011;6145;50.192;10.064;2023-08-01T09:30:46;3.37;;;2.80;;
12163;SDS011;6145;50.192;10.064;2023-08-01T09:33:17;2.40;;;2.20;;
12163;SDS011;6145;50.192;10.064;2023-08-01T09:35:48;1.70;;;1.60;;
12163;SDS011;6145;50.192;10.064;2023-08-01T09:38:23;1.83;;;1.70;;
12163;SDS011;6145;50.192;10.064;2023-08-01T09:40:52;1.80;;;1.70;;
12163;SDS011;6145;50.192;10.064;2023-08-01T09:43:18;2.57;;;1.70;;
12163;SDS011;6145;50.192;10.064;2023-08-01T09:46:00;4.37;;;2.23;;
12163;SDS011;6145;50.192;10.064;2023-08-01T09:48:28;2.20;;;2.00;;
12163;SDS011;6145;50.192;10.064;2023-08-01T09:51:06;2.90;;;2.23;;
12163;SDS011;6145;50.192;10.064;2023-08-01T09:53:34;3.60;;;1.97;;
12163;SDS011;6145;50.192;10.064;2023-08-01T09:56:01;2.30;;;2.10;;
12163;SDS011;6145;50.192;10.064;2023-08-01T09:58:29;2.53;;;2.13;;
12163;SDS011;6145;50.192;10.064;2023-08-01T10:01:01;2.80;;;2.40;;
12163;SDS011;6145;50.192;10.064;2023-08-01T10:03:29;2.50;;;1.90;;
12163;SDS011;6145;50.192;10.064;2023-08-01T10:05:56;2.70;;;2.27;;
12163;SDS011;6145;50.192;10.064;2023-08-01T10:08:25;2.33;;;2.10;;
12163;SDS011;6145;50.192;10.064;2023-08-01T10:10:52;2.40;;;2.23;;
12163;SDS011;6145;50.192;10.064;2023-08-01T10:13:23;3.00;;;2.30;;
12163;SDS011;6145;50.192;10.064;2023-08-01T10:15:52;2.67;;;2.10;;
12163;SDS011;6145;50.192;10.064;2023-08-01T10:18:24;2.33;;;2.13;;
12163;SDS011;6145;50.192;10.064;2023-08-01T10:20:52;2.30;;;2.10;;
12163;SDS011;6145;50.192;10.064;2023-08-01T10:23:19;3.17;;;2.23;;
12163;SDS011;6145;50.192;10.064;2023-08-01T10:25:46;6.17;;;2.33;;
12163;SDS011;6145;50.192;10.064;2023-08-01T10:28:13;2.20;;;2.00;;
12163;SDS011;6145;50.192;10.064;2023-08-01T10:30:40;2.27;;;2.07;;
12163;SDS011;6145;50.192;10.064;2023-08-01T10:33:07;2.60;;;2.00;;
12163;SDS011;6145;50.192;10.064;2023-08-01T10:53:47;2.50;;;1.92;;
12163;SDS011;6145;50.192;10.064;2023-08-01T10:56:17;2.17;;;1.95;;
12163;SDS011;6145;50.192;10.064;2023-08-01T10:58:45;2.00;;;1.80;;
12163;SDS011;6145;50.192;10.064;2023-08-01T11:01:13;2.22;;;1.80;;
12163;SDS011;6145;50.192;10.064;2023-08-01T11:03:40;2.65;;;1.95;;
12163;SDS011;6145;50.192;10.064;2023-08-01T11:06:07;3.33;;;2.00;;
12163;SDS011;6145;50.192;10.064;2023-08-01T11:08:35;1.83;;;1.73;;
12163;SDS011;6145;50.192;10.064;2023-08-01T11:11:04;4.03;;;2.13;;
12163;SDS011;6145;50.192;10.064;2023-08-01T11:13:33;2.25;;;1.77;;
12163;SDS011;6145;50.192;10.064;2023-08-01T11:16:01;1.60;;;1.50;;
12163;SDS011;6145;50.192;10.064;2023-08-01T11:18:29;2.45;;;1.85;;
12163;SDS011;6145;50.192;10.064;2023-08-01T11:20:56;1.80;;;1.70;;
12163;SDS011;6145;50.192;10.064;2023-08-01T11:23:27;1.63;;;1.50;;
12163;SDS011;6145;50.192;10.064;2023-08-01T11:25:55;1.80;;;1.70;;
12163;SDS011;6145;50.192;10.064;2023-08-01T11:28:23;2.13;;;1.70;;
12163;SDS011;6145;50.192;10.064;2023-08-01T11:30:50;2.47;;;1.60;;
12163;SDS011;6145;50.192;10.064;2023-08-01T11:33:18;3.28;;;1.70;;
12163;SDS011;6145;50.192;10.064;2023-08-01T11:35:46;2.35;;;1.95;;
12163;SDS011;6145;50.192;10.064;2023-08-01T11:38:18;1.85;;;1.60;;
12163;SDS011;6145;50.192;10.064;2023-08-01T11:40:46;1.77;;;1.67;;
12163;SDS011;6145;50.192;10.064;2023-08-01T11:43:14;2.00;;;1.63;;
12163;SDS011;6145;50.192;10.064;2023-08-01T11:45:54;1.58;;;1.48;;
12163;SDS011;6145;50.192;10.064;2023-08-01T11:59:08;1.75;;;1.65;;
12163;SDS011;6145;50.192;10.064;2023-08-01T12:01:41;3.63;;;1.58;;
12163;SDS011;6145;50.192;10.064;2023-08-01T12:04:23;2.33;;;1.92;;
12163;SDS011;6145;50.192;10.064;2023-08-01T12:06:51;2.45;;;1.55;;
12163;SDS011;6145;50.192;10.064;2023-08-01T12:09:19;3.65;;;1.80;;
12163;SDS011;6145;50.192;10.064;2023-08-01T12:12:08;2.00;;;1.85;;
12163;SDS011;6145;50.192;10.064;2023-08-01T12:14:38;4.70;;;1.98;;
12163;SDS011;6145;50.192;10.064;2023-08-01T12:17:07;3.58;;;2.15;;
12163;SDS011;6145;50.192;10.064;2023-08-01T12:19:34;2.75;;;1.80;;
12163;SDS011;6145;50.192;10.064;2023-08-01T12:22:04;3.10;;;1.90;;
12163;SDS011;6145;50.192;10.064;2023-08-01T12:24:32;2.40;;;1.77;;
12163;SDS011;6145;50.192;10.064;2023-08-01T12:27:02;3.50;;;2.17;;
12163;SDS011;6145;50.192;10.064;2023-08-01T12:29:32;1.92;;;1.83;;
12163;SDS011;6145;50.192;10.064;2023-08-01T12:32:09;1.83;;;1.73;;
12163;SDS011;6145;50.192;10.064;2023-08-01T12:35:13;1.92;;;1.67;;
12163;SDS011;6145;50.192;10.064;2023-08-01T12:40:58;2.90;;;2.08;;
12163;SDS011;6145;50.192;10.064;2023-08-01T12:44:04;3.05;;;2.72;;
12163;SDS011;6145;50.192;10.064;2023-08-01T12:47:24;2.08;;;1.60;;
12163;SDS011;6145;50.192;10.064;2023-08-01T12:50:34;2.40;;;1.95;;
12163;SDS011;6145;50.192;10.064;2023-08-01T13:03:43;2.78;;;1.83;;
12163;SDS011;6145;50.192;10.064;2023-08-01T13:06:10;2.13;;;1.95;;
12163;SDS011;6145;50.192;10.064;2023-08-01T13:08:45;1.92;;;1.83;;
12163;SDS011;6145;50.192;10.064;2023-08-01T13:11:19;2.08;;;1.80;;
12163;SDS011;6145;50.192;10.064;2023-08-01T13:13:48;1.85;;;1.75;;
12163;SDS011;6145;50.192;10.064;2023-08-01T13:16:21;1.98;;;1.88;;
12163;SDS011;6145;50.192;10.064;2023-08-01T13:18:50;2.08;;;1.95;;
12163;SDS011;6145;50.192;10.064;2023-08-01T13:21:17;2.22;;;1.92;;
12163;SDS011;6145;50.192;10.064;2023-08-01T13:23:49;2.05;;;1.85;;
12163;SDS011;6145;50.192;10.064;2023-08-01T13:26:16;2.10;;;1.90;;
12163;SDS011;6145;50.192;10.064;2023-08-01T13:28:46;2.15;;;1.95;;
12163;SDS011;6145;50.192;10.064;2023-08-01T13:31:13;2.28;;;1.88;;
12163;SDS011;6145;50.192;10.064;2023-08-01T13:33:46;2.22;;;1.70;;
12163;SDS011;6145;50.192;10.064;2023-08-01T13:36:14;2.10;;;1.80;;
12163;SDS011;6145;50.192;10.064;2023-08-01T13:38:48;2.15;;;1.95;;
12163;SDS011;6145;50.192;10.064;2023-08-01T13:41:17;2.13;;;1.85;;
12163;SDS011;6145;50.192;10.064;2023-08-01T13:43:54;2.45;;;1.95;;
12163;SDS011;6145;50.192;10.064;2023-08-01T13:46:21;2.00;;;1.77;;
12163;SDS011;6145;50.192;10.064;2023-08-01T13:48:48;2.03;;;1.80;;
12163;SDS011;6145;50.192;10.064;2023-08-01T13:51:24;2.00;;;1.52;;
12163;SDS011;6145;50.192;10.064;2023-08-01T13:53:53;5.28;;;1.90;;
12163;SDS011;6145;50.192;10.064;2023-08-01T13:56:24;1.73;;;1.60;;
12163;SDS011;6145;50.192;10.064;2023-08-01T13:58:53;1.60;;;1.50;;
12163;SDS011;6145;50.192;10.064;2023-08-01T14:01:20;2.53;;;1.48;;
12163;SDS011;6145;50.192;10.064;2023-08-01T14:03:48;2.10;;;1.70;;
12163;SDS011;6145;50.192;10.064;2023-08-01T14:06:18;2.45;;;1.70;;
12163;SDS011;6145;50.192;10.064;2023-08-01T14:08:59;3.05;;;1.70;;
12163;SDS011;6145;50.192;10.064;2023-08-01T14:11:29;1.95;;;1.60;;
12163;SDS011;6145;50.192;10.064;2023-08-01T14:14:04;2.00;;;1.55;;
12163;SDS011;6145;50.192;10.064;2023-08-01T14:16:31;2.13;;;1.75;;
12163;SDS011;6145;50.192;10.064;2023-08-01T14:19:04;1.73;;;1.33;;
12163;SDS011;6145;50.192;10.064;2023-08-01T14:21:33;1.65;;;1.45;;
12163;SDS011;6145;50.192;10.064;2023-08-01T14:24:05;1.60;;;1.50;;
12163;SDS011;6145;50.192;10.064;2023-08-01T14:26:32;1.60;;;1.40;;
12163;SDS011;6145;50.192;10.064;2023-08-01T14:29:04;1.77;;;1.50;;
12163;SDS011;6145;50.192;10.064;2023-08-01T14:31:31;1.45;;;1.35;;
12163;SDS011;6145;50.192;10.064;2023-08-01T14:33:58;1.42;;;1.30;;
12163;SDS011;6145;50.192;10.064;2023-08-01T14:36:25;1.20;;;1.10;;
12163;SDS011;6145;50.192;10.064;2023-08-01T14:38:53;1.73;;;1.30;;
12163;SDS011;6145;50.192;10.064;2023-08-01T14:41:23;3.30;;;1.27;;
12163;SDS011;6145;50.192;10.064;2023-08-01T14:43:53;1.48;;;1.38;;
12163;SDS011;6145;50.192;10.064;2023-08-01T14:46:20;1.60;;;1.50;;
12163;SDS011;6145;50.192;10.064;2023-08-01T14:48:46;1.60;;;1.30;;
12163;SDS011;6145;50.192;10.064;2023-08-01T14:51:13;4.85;;;1.48;;
12163;SDS011;6145;50.192;10.064;2023-08-01T14:53:40;3.17;;;1.45;;
12163;SDS011;6145;50.192;10.064;2023-08-01T14:56:07;1.40;;;1.30;;
12163;SDS011;6145;50.192;10.064;2023-08-01T14:58:35;2.72;;;1.42;;
12163;SDS011;6145;50.192;10.064;2023-08-01T15:01:04;2.10;;;1.58;;
12163;SDS011;6145;50.192;10.064;2023-08-01T16:44:29;3.43;;;1.63;;
12163;SDS011;6145;50.192;10.064;2023-08-01T16:46:56;1.50;;;1.40;;
12163;SDS011;6145;50.192;10.064;2023-08-01T16:49:24;2.97;;;1.80;;
12163;SDS011;6145;50.192;10.064;2023-08-01T16:51:51;1.70;;;1.50;;
12163;SDS011;6145;50.192;10.064;2023-08-01T16:54:19;3.40;;;1.70;;
12163;SDS011;6145;50.192;10.064;2023-08-01T16:56:47;1.97;;;1.83;;
12163;SDS011;6145;50.192;10.064;2023-08-01T16:59:15;2.67;;;1.60;;
12163;SDS011;6145;50.192;10.064;2023-08-01T17:01:42;1.97;;;1.60;;
12163;SDS011;6145;50.192;10.064;2023-08-01T17:04:09;2.43;;;1.70;;
12163;SDS011;6145;50.192;10.064;2023-08-01T17:06:36;3.50;;;1.90;;
12163;SDS011;6145;50.192;10.064;2023-08-01T17:09:03;2.10;;;1.80;;
12163;SDS011;6145;50.192;10.064;2023-08-01T17:11:32;2.43;;;1.80;;
12163;SDS011;6145;50.192;10.064;2023-08-01T17:13:59;4.33;;;2.00;;
12163;SDS011;6145;50.192;10.064;2023-08-01T17:16:28;2.10;;;1.90;;
12163;SDS011;6145;50.192;10.064;2023-08-01T17:18:55;2.60;;;1.90;;
12163;SDS011;6145;50.192;10.064;2023-08-01T17:21:23;2.57;;;2.00;;
12163;SDS011;6145;50.192;10.064;2023-08-01T17:23:50;3.40;;;2.10;;
12163;SDS011;6145;50.192;10.064;2023-08-01T17:26:18;3.13;;;1.90;;
12163;SDS011;6145;50.192;10.064;2023-08-01T17:28:45;2.20;;;2.00;;
12163;SDS011;6145;50.192;10.064;2023-08-01T17:31:12;2.20;;;2.00;;
12163;SDS011;6145;50.192;10.064;2023-08-01T17:33:40;3.83;;;2.10;;
12163;SDS011;6145;50.192;10.064;2023-08-01T17:36:07;2.20;;;2.00;;
12163;SDS011;6145;50.192;10.064;2023-08-01T17:38:34;3.83;;;2.27;;
12163;SDS011;6145;50.192;10.064;2023-08-01T17:41:15;2.63;;;1.90;;
12163;SDS011;6145;50.192;10.064;2023-08-01T17:43:43;3.80;;;2.50;;
12163;SDS011;6145;50.192;10.064;2023-08-01T17:46:10;2.83;;;2.23;;
12163;SDS011;6145;50.192;10.064;2023-08-01T17:48:50;3.73;;;2.33;;
12163;SDS011;6145;50.192;10.064;2023-08-01T17:51:18;2.10;;;1.83;;
12163;SDS011;6145;50.192;10.064;2023-08-01T17:53:45;6.07;;;2.50;;
12163;SDS011;6145;50.192;10.064;2023-08-01T17:56:13;3.33;;;2.17;;
12163;SDS011;6145;50.192;10.064;2023-08-01T17:58:41;2.60;;;2.27;;
12163;SDS011;6145;50.192;10.064;2023-08-01T18:01:08;3.03;;;2.10;;
12163;SDS011;6145;50.192;10.064;2023-08-01T18:03:35;2.87;;;2.10;;
12163;SDS011;6145;50.192;10.064;2023-08-01T18:06:04;1.87;;;1.60;;
12163;SDS011;6145;50.192;10.064;2023-08-01T18:08:32;2.60;;;1.80;;
12163;SDS011;6145;50.192;10.064;2023-08-01T18:11:16;3.37;;;2.13;;
12163;SDS011;6145;50.192;10.064;2023-08-01T18:13:45;2.50;;;1.60;;
12163;SDS011;6145;50.192;10.064;2023-08-01T18:16:17;2.10;;;1.77;;
12163;SDS011;6145;50.192;10.064;2023-08-01T18:18:45;2.87;;;2.00;;
12163;SDS011;6145;50.192;10.064;2023-08-01T18:21:16;3.23;;;1.90;;
12163;SDS011;6145;50.192;10.064;2023-08-01T18:23:46;2.30;;;1.63;;
12163;SDS011;6145;50.192;10.064;2023-08-01T18:26:17;2.73;;;1.90;;
12163;SDS011;6145;50.192;10.064;2023-08-01T18:28:50;2.60;;;1.93;;
12163;SDS011;6145;50.192;10.064;2023-08-01T18:31:30;3.33;;;1.87;;
12163;SDS011;6145;50.192;10.064;2023-08-01T18:34:08;3.90;;;1.73;;
12163;SDS011;6145;50.192;10.064;2023-08-01T18:36:42;2.33;;;2.07;;
12163;SDS011;6145;50.192;10.064;2023-08-01T18:39:29;3.00;;;1.80;;
12163;SDS011;6145;50.192;10.064;2023-08-01T18:42:08;2.67;;;2.07;;
12163;SDS011;6145;50.192;10.064;2023-08-01T18:47:31;2.03;;;1.80;;
12163;SDS011;6145;50.192;10.064;2023-08-01T18:50:09;2.37;;;1.70;;
12163;SDS011;6145;50.192;10.064;2023-08-01T18:52:41;2.17;;;1.80;;
12163;SDS011;6145;50.192;10.064;2023-08-01T18:55:29;2.80;;;1.60;;
12163;SDS011;6145;50.192;10.064;2023-08-01T18:58:06;3.43;;;2.37;;
12163;SDS011;6145;50.192;10.064;2023-08-01T19:00:39;2.53;;;1.90;;
12163;SDS011;6145;50.192;10.064;2023-08-01T19:03:18;2.40;;;2.07;;
12163;SDS011;6145;50.192;10.064;2023-08-01T19:06:28;2.87;;;1.77;;
12163;SDS011;6145;50.192;10.064;2023-08-01T19:09:14;2.20;;;1.80;;
12163;SDS011;6145;50.192;10.064;2023-08-01T19:11:47;4.17;;;2.20;;
12163;SDS011;6145;50.192;10.064;2023-08-01T19:17:33;2.73;;;1.80;;
12163;SDS011;6145;50.192;10.064;2023-08-01T19:20:29;3.47;;;2.00;;
12163;SDS011;6145;50.192;10.064;2023-08-01T19:23:05;2.70;;;1.63;;
12163;SDS011;6145;50.192;10.064;2023-08-01T19:25:43;4.73;;;2.13;;
12163;SDS011;6145;50.192;10.064;2023-08-01T19:28:36;2.57;;;1.83;;
12163;SDS011;6145;50.192;10.064;2023-08-01T19:31:14;2.27;;;2.00;;
12163;SDS011;6145;50.192;10.064;2023-08-01T19:33:46;2.43;;;1.80;;
12163;SDS011;6145;50.192;10.064;2023-08-01T19:36:30;2.77;;;1.93;;
12163;SDS011;6145;50.192;10.064;2023-08-01T19:39:02;3.93;;;2.00;;
12163;SDS011;6145;50.192;10.064;2023-08-01T19:41:34;2.50;;;1.80;;
12163;SDS011;6145;50.192;10.064;2023-08-01T19:44:01;3.67;;;1.60;;
12163;SDS011;6145;50.192;10.064;2023-08-01T19:46:29;2.13;;;1.67;;
12163;SDS011;6145;50.192;10.064;2023-08-01T19:48:58;2.20;;;1.80;;
12163;SDS011;6145;50.192;10.064;2023-08-01T19:51:29;2.53;;;1.77;;
12163;SDS011;6145;50.192;10.064;2023-08-01T19:53:59;2.83;;;2.07;;
12163;SDS011;6145;50.192;10.064;2023-08-01T19:56:26;2.43;;;1.70;;
12163;SDS011;6145;50.192;10.064;2023-08-01T19:58:58;4.30;;;1.63;;
12163;SDS011;6145;50.192;10.064;2023-08-01T20:01:25;3.73;;;1.83;;
12163;SDS011;6145;50.192;10.064;2023-08-01T20:03:52;2.00;;;1.70;;
12163;SDS011;6145;50.192;10.064;2023-08-01T20:06:38;2.30;;;1.80;;
12163;SDS011;6145;50.192;10.064;2023-08-01T20:09:07;2.87;;;1.83;;
12163;SDS011;6145;50.192;10.064;2023-08-01T20:11:37;3.00;;;1.70;;
12163;SDS011;6145;50.192;10.064;2023-08-01T20:14:05;4.87;;;1.90;;
12163;SDS011;6145;50.192;10.064;2023-08-01T20:16:32;2.57;;;2.10;;
12163;SDS011;6145;50.192;10.064;2023-08-01T20:19:01;3.77;;;1.90;;
12163;SDS011;6145;50.192;10.064;2023-08-01T20:21:28;1.90;;;1.70;;
12163;SDS011;6145;50.192;10.064;2023-08-01T20:23:55;1.87;;;1.60;;
12163;SDS011;6145;50.192;10.064;2023-08-01T20:26:22;1.70;;;1.60;;
12163;SDS011;6145;50.192;10.064;2023-08-01T20:28:49;4.50;;;1.80;;
12163;SDS011;6145;50.192;10.064;2023-08-01T20:31:21;2.13;;;1.93;;
12163;SDS011;6145;50.192;10.064;2023-08-01T20:33:48;3.07;;;1.90;;
12163;SDS011;6145;50.192;10.064;2023-08-01T20:36:17;1.50;;;1.40;;
12163;SDS011;6145;50.192;10.064;2023-08-01T20:38:44;4.40;;;1.80;;
12163;SDS011;6145;50.192;10.064;2023-08-01T20:41:11;2.10;;;1.57;;
12163;SDS011;6145;50.192;10.064;2023-08-01T20:43:38;7.50;;;2.00;;
12163;SDS011;6145;50.192;10.064;2023-08-01T20:46:05;2.27;;;1.50;;
12163;SDS011;6145;50.192;10.064;2023-08-01T20:48:33;3.40;;;1.83;;
12163;SDS011;6145;50.192;10.064;2023-08-01T20:51:00;1.60;;;1.50;;
12163;SDS011;6145;50.192;10.064;2023-08-01T20:53:27;2.33;;;1.47;;
12163;SDS011;6145;50.192;10.064;2023-08-01T20:55:54;2.40;;;1.83;;
12163;SDS011;6145;50.192;10.064;2023-08-01T20:58:21;3.00;;;1.43;;
12163;SDS011;6145;50.192;10.064;2023-08-01T21:00:48;2.33;;;1.60;;
12163;SDS011;6145;50.192;10.064;2023-08-01T21:03:15;2.30;;;1.60;;
12163;SDS011;6145;50.192;10.064;2023-08-01T21:05:44;1.93;;;1.60;;
12163;SDS011;6145;50.192;10.064;2023-08-01T21:08:10;2.97;;;1.77;;
12163;SDS011;6145;50.192;10.064;2023-08-01T21:10:37;4.60;;;1.70;;
12163;SDS011;6145;50.192;10.064;2023-08-01T21:13:04;2.97;;;1.53;;
12163;SDS011;6145;50.192;10.064;2023-08-01T21:15:31;4.63;;;1.97;;
12163;SDS011;6145;50.192;10.064;2023-08-01T21:17:58;2.40;;;1.60;;
12163;SDS011;6145;50.192;10.064;2023-08-01T21:20:25;2.03;;;1.77;;
12163;SDS011;6145;50.192;10.064;2023-08-01T21:22:53;2.77;;;1.73;;
12163;SDS011;6145;50.192;10.064;2023-08-01T21:25:20;4.13;;;1.93;;
12163;SDS011;6145;50.192;10.064;2023-08-01T21:27:47;3.57;;;1.90;;
12163;SDS011;6145;50.192;10.064;2023-08-01T21:30:14;4.73;;;2.00;;
12163;SDS011;6145;50.192;10.064;2023-08-01T21:32:42;1.60;;;1.50;;
12163;SDS011;6145;50.192;10.064;2023-08-01T21:35:09;2.03;;;1.50;;
12163;SDS011;6145;50.192;10.064;2023-08-01T21:37:35;3.07;;;1.70;;
12163;SDS011;6145;50.192;10.064;2023-08-01T21:40:05;4.83;;;1.67;;
12163;SDS011;6145;50.192;10.064;2023-08-01T21:42:33;2.57;;;2.00;;
12163;SDS011;6145;50.192;10.064;2023-08-01T21:45:03;2.73;;;1.80;;
12163;SDS011;6145;50.192;10.064;2023-08-01T21:47:31;2.73;;;1.60;;
12163;SDS011;6145;50.192;10.064;2023-08-01T21:49:58;4.10;;;1.83;;
12163;SDS011;6145;50.192;10.064;2023-08-01T21:52:25;2.13;;;1.57;;
12163;SDS011;6145;50.192;10.064;2023-08-01T21:54:52;3.47;;;2.07;;
12163;SDS011;6145;50.192;10.064;2023-08-01T21:57:20;5.13;;;1.60;;
12163;SDS011;6145;50.192;10.064;2023-08-01T21:59:48;3.37;;;2.20;;
12163;SDS011;6145;50.192;10.064;2023-08-01T22:02:15;2.13;;;1.53;;
12163;SDS011;6145;50.192;10.064;2023-08-01T22:04:42;3.33;;;1.43;;
12163;SDS011;6145;50.192;10.064;2023-08-01T22:07:09;2.53;;;1.67;;
12163;SDS011;6145;50.192;10.064;2023-08-01T22:09:35;2.07;;;1.80;;
12163;SDS011;6145;50.192;10.064;2023-08-01T22:12:03;2.43;;;1.63;;
12163;SDS011;6145;50.192;10.064;2023-08-01T22:14:31;3.43;;;1.87;;
12163;SDS011;6145;50.192;10.064;2023-08-01T22:16:58;4.40;;;2.37;;
12163;SDS011;6145;50.192;10.064;2023-08-01T22:19:25;3.10;;;1.80;;
12163;SDS011;6145;50.192;10.064;2023-08-01T22:21:52;3.23;;;1.67;;
12163;SDS011;6145;50.192;10.064;2023-08-01T22:24:17;2.87;;;1.77;;
12163;SDS011;6145;50.192;10.064;2023-08-01T22:26:44;7.50;;;2.20;;
12163;SDS011;6145;50.192;10.064;2023-08-01T22:29:11;3.33;;;1.70;;
12163;SDS011;6145;50.192;10.064;2023-08-01T22:31:39;2.90;;;2.13;;
12163;SDS011;6145;50.192;10.064;2023-08-01T22:34:06;4.03;;;2.10;;
12163;SDS011;6145;50.192;10.064;2023-08-01T22:36:35;2.67;;;2.10;;
12163;SDS011;6145;50.192;10.064;2023-08-01T22:39:02;5.53;;;2.20;;
12163;SDS011;6145;50.192;10.064;2023-08-01T22:41:29;3.67;;;1.73;;
12163;SDS011;6145;50.192;10.064;2023-08-01T22:43:56;3.00;;;1.80;;
12163;SDS011;6145;50.192;10.064;2023-08-01T22:46:24;4.00;;;1.87;;
12163;SDS011;6145;50.192;10.064;2023-08-01T22:48:52;5.90;;;2.20;;
12163;SDS011;6145;50.192;10.064;2023-08-01T22:51:20;4.47;;;2.00;;
12163;SDS011;6145;50.192;10.064;2023-08-01T22:53:47;4.03;;;2.13;;
12163;SDS011;6145;50.192;10.064;2023-08-01T22:56:16;3.77;;;1.97;;
12163;SDS011;6145;50.192;10.064;2023-08-01T22:58:43;3.00;;;1.97;;
12163;SDS011;6145;50.192;10.064;2023-08-01T23:01:12;2.30;;;1.90;;
12163;SDS011;6145;50.192;10.064;2023-08-01T23:03:40;2.87;;;1.80;;
12163;SDS011;6145;50.192;10.064;2023-08-01T23:06:10;5.50;;;2.20;;
12163;SDS011;6145;50.192;10.064;2023-08-01T23:08:38;2.47;;;2.03;;
12163;SDS011;6145;50.192;10.064;2023-08-01T23:11:05;2.53;;;1.87;;
12163;SDS011;6145;50.192;10.064;2023-08-01T23:13:31;2.93;;;1.93;;
12163;SDS011;6145;50.192;10.064;2023-08-01T23:15:58;4.43;;;2.00;;
12163;SDS011;6145;50.192;10.064;2023-08-01T23:18:25;3.97;;;2.20;;
12163;SDS011;6145;50.192;10.064;2023-08-01T23:20:55;4.50;;;2.13;;
12163;SDS011;6145;50.192;10.064;2023-08-01T23:23:24;3.17;;;2.17;;
12163;SDS011;6145;50.192;10.064;2023-08-01T23:26:00;5.97;;;2.43;;
12163;SDS011;6145;50.192;10.064;2023-08-01T23:28:28;4.77;;;2.07;;
12163;SDS011;6145;50.192;10.064;2023-08-01T23:30:54;4.90;;;2.27;;
12163;SDS011;6145;50.192;10.064;2023-08-01T23:33:21;3.30;;;2.30;;
12163;SDS011;6145;50.192;10.064;2023-08-01T23:35:49;3.50;;;1.90;;
12163;SDS011;6145;50.192;10.064;2023-08-01T23:38:16;2.97;;;2.30;;
12163;SDS011;6145;50.192;10.064;2023-08-01T23:40:46;5.00;;;1.97;;
12163;SDS011;6145;50.192;10.064;2023-08-01T23:43:13;4.20;;;2.80;;
12163;SDS011;6145;50.192;10.064;2023-08-01T23:45:45;6.40;;;2.30;;
12163;SDS011;6145;50.192;10.064;2023-08-01T23:48:13;3.93;;;2.43;;
12163;SDS011;6145;50.192;10.064;2023-08-01T23:50:40;8.60;;;2.17;;
12163;SDS011;6145;50.192;10.064;2023-08-01T23:53:09;5.20;;;2.30;;
12163;SDS011;6145;50.192;10.064;2023-08-01T23:55:35;3.60;;;2.13;;
12163;SDS011;6145;50.192;10.064;2023-08-01T23:58:05;3.63;;;2.10;;
